sensor_id;sensor_type;location;lat;lon;timestamp;temperature;humidity
3086;DHT22;52812;48.960;9.108;2023-02-23T00:01:36;6.90;99.90
3086;DHT22;52812;48.960;9.108;2023-02-23T00:04:03;6.90;99.90
3086;DHT22;52812;48.960;9.108;2023-02-23T00:06:30;6.90;99.90
3086;DHT22;52812;48.960;9.108;2023-02-23T00:08:56;6.90;99.90
3086;DHT22;52812;48.960;9.108;2023-02-23T00:11:26;7.00;99.90
3086;DHT22;52812;48.960;9.108;2023-02-23T00:13:52;7.00;99.90
3086;DHT22;52812;48.960;9.108;2023-02-23T00:16:20;7.10;99.90
3086;DHT22;52812;48.960;9.108;2023-02-23T00:18:49;7.10;99.90
3086;DHT22;52812;48.960;9.108;2023-02-23T00:21:21;7.20;99.90
3086;DHT22;52812;48.960;9.108;2023-02-23T00:23:57;7.20;99.90
3086;DHT22;52812;48.960;9.108;2023-02-23T00:26:29;7.20;99.90
3086;DHT22;52812;48.960;9.108;2023-02-23T00:28:56;7.20;99.90
3086;DHT22;52812;48.960;9.108;2023-02-23T00:31:24;7.30;99.90
3086;DHT22;52812;48.960;9.108;2023-02-23T00:33:52;7.30;99.90
3086;DHT22;52812;48.960;9.108;2023-02-23T00:36:20;7.30;99.90
3086;DHT22;52812;48.960;9.108;2023-02-23T00:38:46;7.30;99.90
3086;DHT22;52812;48.960;9.108;2023-02-23T00:41:14;7.30;99.90
3086;DHT22;52812;48.960;9.108;2023-02-23T00:43:44;7.30;99.90
3086;DHT22;52812;48.960;9.108;2023-02-23T00:46:13;7.40;99.90
3086;DHT22;52812;48.960;9.108;2023-02-23T00:48:40;7.40;99.90
3086;DHT22;52812;48.960;9.108;2023-02-23T00:51:06;7.40;99.90
3086;DHT22;52812;48.960;9.108;2023-02-23T00:53:32;7.40;99.90
3086;DHT22;52812;48.960;9.108;2023-02-23T00:55:58;7.40;99.90
3086;DHT22;52812;48.960;9.108;2023-02-23T00:58:24;7.40;99.90
3086;DHT22;52812;48.960;9.108;2023-02-23T01:00:51;7.40;99.90
3086;DHT22;52812;48.960;9.108;2023-02-23T01:03:17;7.40;99.90
3086;DHT22;52812;48.960;9.108;2023-02-23T01:05:43;7.40;99.90
3086;DHT22;52812;48.960;9.108;2023-02-23T01:08:11;7.40;99.90
3086;DHT22;52812;48.960;9.108;2023-02-23T01:10:40;7.40;99.90
3086;DHT22;52812;48.960;9.108;2023-02-23T01:13:08;7.40;99.90
3086;DHT22;52812;48.960;9.108;2023-02-23T01:15:39;7.40;99.90
3086;DHT22;52812;48.960;9.108;2023-02-23T01:18:05;7.40;99.90
3086;DHT22;52812;48.960;9.108;2023-02-23T01:20:33;7.40;99.90
3086;DHT22;52812;48.960;9.108;2023-02-23T01:23:01;7.40;99.90
3086;DHT22;52812;48.960;9.108;2023-02-23T01:25:27;7.40;99.90
3086;DHT22;52812;48.960;9.108;2023-02-23T01:27:56;7.40;99.90
3086;DHT22;52812;48.960;9.108;2023-02-23T01:30:21;7.40;99.90
3086;DHT22;52812;48.960;9.108;2023-02-23T01:32:47;7.40;99.90
3086;DHT22;52812;48.960;9.108;2023-02-23T01:35:13;7.40;99.90
3086;DHT22;52812;48.960;9.108;2023-02-23T01:37:41;7.30;99.90
3086;DHT22;52812;48.960;9.108;2023-02-23T01:40:12;7.40;99.90
3086;DHT22;52812;48.960;9.108;2023-02-23T01:42:42;7.40;99.90
3086;DHT22;52812;48.960;9.108;2023-02-23T01:45:23;7.40;99.90
3086;DHT22;52812;48.960;9.108;2023-02-23T01:47:51;7.40;99.90
3086;DHT22;52812;48.960;9.108;2023-02-23T01:50:17;7.40;99.90
3086;DHT22;52812;48.960;9.108;2023-02-23T01:52:45;7.50;99.90
3086;DHT22;52812;48.960;9.108;2023-02-23T01:55:12;7.50;99.90
3086;DHT22;52812;48.960;9.108;2023-02-23T01:57:40;7.50;99.90
3086;DHT22;52812;48.960;9.108;2023-02-23T02:00:07;7.50;99.90
3086;DHT22;52812;48.960;9.108;2023-02-23T02:02:39;7.50;99.90
3086;DHT22;52812;48.960;9.108;2023-02-23T02:05:06;7.40;99.90
3086;DHT22;52812;48.960;9.108;2023-02-23T02:07:38;7.40;99.90
3086;DHT22;52812;48.960;9.108;2023-02-23T02:10:05;7.40;99.90
3086;DHT22;52812;48.960;9.108;2023-02-23T02:12:44;7.50;99.90
3086;DHT22;52812;48.960;9.108;2023-02-23T02:15:12;7.40;99.90
3086;DHT22;52812;48.960;9.108;2023-02-23T02:21:01;7.40;99.90
3086;DHT22;52812;48.960;9.108;2023-02-23T02:38:08;7.60;99.90
3086;DHT22;52812;48.960;9.108;2023-02-23T02:40:40;7.60;99.90
3086;DHT22;52812;48.960;9.108;2023-02-23T02:43:36;7.50;99.90
3086;DHT22;52812;48.960;9.108;2023-02-23T02:46:13;7.50;99.90
3086;DHT22;52812;48.960;9.108;2023-02-23T02:49:12;7.60;99.90
3086;DHT22;52812;48.960;9.108;2023-02-23T02:51:57;7.60;99.90
3086;DHT22;52812;48.960;9.108;2023-02-23T02:54:27;7.60;99.90
3086;DHT22;52812;48.960;9.108;2023-02-23T02:56:57;7.60;99.90
3086;DHT22;52812;48.960;9.108;2023-02-23T02:59:25;7.60;99.90
3086;DHT22;52812;48.960;9.108;2023-02-23T03:02:16;7.70;99.90
3086;DHT22;52812;48.960;9.108;2023-02-23T03:05:01;7.70;99.90
3086;DHT22;52812;48.960;9.108;2023-02-23T03:11:05;7.70;99.90
3086;DHT22;52812;48.960;9.108;2023-02-23T03:14:02;7.70;99.90
3086;DHT22;52812;48.960;9.108;2023-02-23T03:17:03;7.70;99.90
3086;DHT22;52812;48.960;9.108;2023-02-23T03:22:50;7.70;99.90
3086;DHT22;52812;48.960;9.108;2023-02-23T03:32:05;7.70;99.90
3086;DHT22;52812;48.960;9.108;2023-02-23T03:35:04;7.60;99.90
3086;DHT22;52812;48.960;9.108;2023-02-23T03:38:08;7.60;99.90
3086;DHT22;52812;48.960;9.108;2023-02-23T03:40:55;7.50;99.90
3086;DHT22;52812;48.960;9.108;2023-02-23T03:44:02;7.50;99.90
3086;DHT22;52812;48.960;9.108;2023-02-23T03:46:47;7.60;99.90
3086;DHT22;52812;48.960;9.108;2023-02-23T03:49:36;7.50;99.90
3086;DHT22;52812;48.960;9.108;2023-02-23T03:52:32;7.50;99.90
3086;DHT22;52812;48.960;9.108;2023-02-23T03:55:25;7.50;99.90
3086;DHT22;52812;48.960;9.108;2023-02-23T03:58:13;7.60;99.90
3086;DHT22;52812;48.960;9.108;2023-02-23T04:01:02;7.60;99.90
3086;DHT22;52812;48.960;9.108;2023-02-23T04:03:49;7.60;99.90
3086;DHT22;52812;48.960;9.108;2023-02-23T04:06:38;7.60;99.90
3086;DHT22;52812;48.960;9.108;2023-02-23T04:09:23;7.70;99.90
3086;DHT22;52812;48.960;9.108;2023-02-23T04:12:34;7.70;99.90
3086;DHT22;52812;48.960;9.108;2023-02-23T04:15:22;7.70;99.90
3086;DHT22;52812;48.960;9.108;2023-02-23T04:17:51;7.70;99.90
3086;DHT22;52812;48.960;9.108;2023-02-23T04:20:17;7.70;99.90
3086;DHT22;52812;48.960;9.108;2023-02-23T04:22:42;7.70;99.90
3086;DHT22;52812;48.960;9.108;2023-02-23T04:25:09;7.60;99.90
3086;DHT22;52812;48.960;9.108;2023-02-23T04:27:35;7.70;99.90
3086;DHT22;52812;48.960;9.108;2023-02-23T04:30:01;7.60;99.90
3086;DHT22;52812;48.960;9.108;2023-02-23T04:32:28;7.60;99.90
3086;DHT22;52812;48.960;9.108;2023-02-23T04:34:54;7.60;99.90
3086;DHT22;52812;48.960;9.108;2023-02-23T04:37:19;7.60;99.90
3086;DHT22;52812;48.960;9.108;2023-02-23T04:39:45;7.60;99.90
3086;DHT22;52812;48.960;9.108;2023-02-23T04:42:14;7.60;99.90
3086;DHT22;52812;48.960;9.108;2023-02-23T04:44:40;7.60;99.90
3086;DHT22;52812;48.960;9.108;2023-02-23T04:47:05;7.50;99.90
3086;DHT22;52812;48.960;9.108;2023-02-23T04:49:31;7.50;99.90
3086;DHT22;52812;48.960;9.108;2023-02-23T04:51:57;7.50;99.90
3086;DHT22;52812;48.960;9.108;2023-02-23T04:54:22;7.50;99.90
3086;DHT22;52812;48.960;9.108;2023-02-23T04:56:48;7.50;99.90
3086;DHT22;52812;48.960;9.108;2023-02-23T04:59:13;7.50;99.90
3086;DHT22;52812;48.960;9.108;2023-02-23T05:01:39;7.50;99.90
3086;DHT22;52812;48.960;9.108;2023-02-23T05:04:05;7.50;99.90
3086;DHT22;52812;48.960;9.108;2023-02-23T05:06:30;7.40;99.90
3086;DHT22;52812;48.960;9.108;2023-02-23T05:08:57;7.40;99.90
3086;DHT22;52812;48.960;9.108;2023-02-23T05:11:22;7.40;99.90
3086;DHT22;52812;48.960;9.108;2023-02-23T05:13:49;7.30;99.90
3086;DHT22;52812;48.960;9.108;2023-02-23T05:16:14;7.40;99.90
3086;DHT22;52812;48.960;9.108;2023-02-23T05:18:40;7.40;99.90
3086;DHT22;52812;48.960;9.108;2023-02-23T05:21:07;7.40;99.90
3086;DHT22;52812;48.960;9.108;2023-02-23T05:23:34;7.40;99.90
3086;DHT22;52812;48.960;9.108;2023-02-23T05:26:05;7.30;99.90
3086;DHT22;52812;48.960;9.108;2023-02-23T05:28:32;7.30;99.90
3086;DHT22;52812;48.960;9.108;2023-02-23T05:30:59;7.30;99.90
3086;DHT22;52812;48.960;9.108;2023-02-23T05:33:25;7.30;99.90
3086;DHT22;52812;48.960;9.108;2023-02-23T05:35:50;7.30;99.90
3086;DHT22;52812;48.960;9.108;2023-02-23T05:38:16;7.30;99.90
3086;DHT22;52812;48.960;9.108;2023-02-23T05:40:41;7.30;99.90
3086;DHT22;52812;48.960;9.108;2023-02-23T05:43:07;7.20;99.90
3086;DHT22;52812;48.960;9.108;2023-02-23T05:45:33;7.20;99.90
3086;DHT22;52812;48.960;9.108;2023-02-23T05:47:59;7.20;99.90
3086;DHT22;52812;48.960;9.108;2023-02-23T05:50:25;7.20;99.90
3086;DHT22;52812;48.960;9.108;2023-02-23T05:52:51;7.20;99.90
3086;DHT22;52812;48.960;9.108;2023-02-23T05:55:16;7.30;99.90
3086;DHT22;52812;48.960;9.108;2023-02-23T05:57:42;7.30;99.90
3086;DHT22;52812;48.960;9.108;2023-02-23T06:00:10;7.20;99.90
3086;DHT22;52812;48.960;9.108;2023-02-23T06:02:36;7.20;99.90
3086;DHT22;52812;48.960;9.108;2023-02-23T06:05:02;7.20;99.90
3086;DHT22;52812;48.960;9.108;2023-02-23T06:07:27;7.20;99.90
3086;DHT22;52812;48.960;9.108;2023-02-23T06:09:53;7.20;99.90
3086;DHT22;52812;48.960;9.108;2023-02-23T06:12:18;7.30;99.90
3086;DHT22;52812;48.960;9.108;2023-02-23T06:14:44;7.20;99.90
3086;DHT22;52812;48.960;9.108;2023-02-23T06:17:10;7.20;99.90
3086;DHT22;52812;48.960;9.108;2023-02-23T06:19:35;7.20;99.90
3086;DHT22;52812;48.960;9.108;2023-02-23T06:22:01;7.10;99.90
3086;DHT22;52812;48.960;9.108;2023-02-23T06:24:26;7.10;99.90
3086;DHT22;52812;48.960;9.108;2023-02-23T06:26:52;7.00;99.90
3086;DHT22;52812;48.960;9.108;2023-02-23T06:29:18;7.10;99.90
3086;DHT22;52812;48.960;9.108;2023-02-23T06:31:43;7.10;99.90
3086;DHT22;52812;48.960;9.108;2023-02-23T06:34:09;7.00;99.90
3086;DHT22;52812;48.960;9.108;2023-02-23T06:36:35;7.00;99.90
3086;DHT22;52812;48.960;9.108;2023-02-23T06:39:02;7.10;99.90
3086;DHT22;52812;48.960;9.108;2023-02-23T06:41:28;7.10;99.90
3086;DHT22;52812;48.960;9.108;2023-02-23T06:43:55;7.10;99.90
3086;DHT22;52812;48.960;9.108;2023-02-23T06:46:21;7.10;99.90
3086;DHT22;52812;48.960;9.108;2023-02-23T06:48:47;7.10;99.90
3086;DHT22;52812;48.960;9.108;2023-02-23T06:51:12;7.10;99.90
3086;DHT22;52812;48.960;9.108;2023-02-23T06:53:38;7.10;99.90
3086;DHT22;52812;48.960;9.108;2023-02-23T06:56:04;7.10;99.90
3086;DHT22;52812;48.960;9.108;2023-02-23T06:58:29;7.10;99.90
3086;DHT22;52812;48.960;9.108;2023-02-23T07:00:56;7.10;99.90
3086;DHT22;52812;48.960;9.108;2023-02-23T07:03:25;7.10;99.90
3086;DHT22;52812;48.960;9.108;2023-02-23T07:05:51;7.10;99.90
3086;DHT22;52812;48.960;9.108;2023-02-23T07:08:18;7.10;99.90
3086;DHT22;52812;48.960;9.108;2023-02-23T07:10:44;7.10;99.90
3086;DHT22;52812;48.960;9.108;2023-02-23T07:13:10;7.10;99.90
3086;DHT22;52812;48.960;9.108;2023-02-23T07:15:39;7.20;99.90
3086;DHT22;52812;48.960;9.108;2023-02-23T07:18:05;7.20;99.90
3086;DHT22;52812;48.960;9.108;2023-02-23T07:20:32;7.20;99.90
3086;DHT22;52812;48.960;9.108;2023-02-23T07:22:58;7.30;99.90
3086;DHT22;52812;48.960;9.108;2023-02-23T07:25:25;7.30;99.90
3086;DHT22;52812;48.960;9.108;2023-02-23T07:27:51;7.30;99.90
3086;DHT22;52812;48.960;9.108;2023-02-23T07:30:18;7.40;99.90
3086;DHT22;52812;48.960;9.108;2023-02-23T07:32:44;7.50;99.90
3086;DHT22;52812;48.960;9.108;2023-02-23T07:35:10;7.50;99.90
3086;DHT22;52812;48.960;9.108;2023-02-23T07:37:36;7.60;99.90
3086;DHT22;52812;48.960;9.108;2023-02-23T07:40:02;7.70;99.90
3086;DHT22;52812;48.960;9.108;2023-02-23T07:42:28;7.70;99.90
3086;DHT22;52812;48.960;9.108;2023-02-23T07:44:53;7.80;99.90
3086;DHT22;52812;48.960;9.108;2023-02-23T07:47:19;7.80;99.90
3086;DHT22;52812;48.960;9.108;2023-02-23T07:49:44;7.90;99.90
3086;DHT22;52812;48.960;9.108;2023-02-23T07:52:10;7.90;99.90
3086;DHT22;52812;48.960;9.108;2023-02-23T07:54:36;8.10;99.90
3086;DHT22;52812;48.960;9.108;2023-02-23T07:57:01;8.10;99.90
3086;DHT22;52812;48.960;9.108;2023-02-23T07:59:27;8.20;99.90
3086;DHT22;52812;48.960;9.108;2023-02-23T08:01:52;8.30;99.90
3086;DHT22;52812;48.960;9.108;2023-02-23T08:04:18;8.30;99.90
3086;DHT22;52812;48.960;9.108;2023-02-23T08:06:43;8.40;99.90
3086;DHT22;52812;48.960;9.108;2023-02-23T08:09:10;8.40;99.90
3086;DHT22;52812;48.960;9.108;2023-02-23T08:11:36;8.40;99.90
3086;DHT22;52812;48.960;9.108;2023-02-23T08:14:09;8.40;99.90
3086;DHT22;52812;48.960;9.108;2023-02-23T08:16:35;8.40;99.90
3086;DHT22;52812;48.960;9.108;2023-02-23T08:19:01;8.40;99.90
3086;DHT22;52812;48.960;9.108;2023-02-23T08:21:27;8.40;99.90
3086;DHT22;52812;48.960;9.108;2023-02-23T08:23:54;8.50;99.90
3086;DHT22;52812;48.960;9.108;2023-02-23T08:26:20;8.50;99.90
3086;DHT22;52812;48.960;9.108;2023-02-23T08:28:45;8.60;99.90
3086;DHT22;52812;48.960;9.108;2023-02-23T08:31:12;8.80;99.90
3086;DHT22;52812;48.960;9.108;2023-02-23T08:33:39;8.90;99.90
3086;DHT22;52812;48.960;9.108;2023-02-23T08:36:06;8.90;99.90
3086;DHT22;52812;48.960;9.108;2023-02-23T08:38:31;9.00;99.90
3086;DHT22;52812;48.960;9.108;2023-02-23T08:41:01;9.00;99.90
3086;DHT22;52812;48.960;9.108;2023-02-23T08:43:27;9.00;99.90
3086;DHT22;52812;48.960;9.108;2023-02-23T08:45:52;9.00;99.90
3086;DHT22;52812;48.960;9.108;2023-02-23T08:48:18;9.20;99.90
3086;DHT22;52812;48.960;9.108;2023-02-23T08:50:47;9.20;99.90
3086;DHT22;52812;48.960;9.108;2023-02-23T08:53:15;9.30;99.90
3086;DHT22;52812;48.960;9.108;2023-02-23T08:55:40;9.40;99.90
3086;DHT22;52812;48.960;9.108;2023-02-23T08:58:09;9.50;99.90
3086;DHT22;52812;48.960;9.108;2023-02-23T09:00:39;9.60;99.90
3086;DHT22;52812;48.960;9.108;2023-02-23T09:03:05;9.80;99.90
3086;DHT22;52812;48.960;9.108;2023-02-23T09:05:32;9.90;99.90
3086;DHT22;52812;48.960;9.108;2023-02-23T09:07:57;9.90;99.90
3086;DHT22;52812;48.960;9.108;2023-02-23T09:10:23;9.90;99.90
3086;DHT22;52812;48.960;9.108;2023-02-23T09:12:52;10.00;99.90
3086;DHT22;52812;48.960;9.108;2023-02-23T09:15:18;10.10;99.90
3086;DHT22;52812;48.960;9.108;2023-02-23T09:17:44;10.10;99.90
3086;DHT22;52812;48.960;9.108;2023-02-23T09:20:12;10.20;99.90
3086;DHT22;52812;48.960;9.108;2023-02-23T09:22:43;10.30;99.90
3086;DHT22;52812;48.960;9.108;2023-02-23T09:25:17;10.40;99.90
3086;DHT22;52812;48.960;9.108;2023-02-23T09:27:44;10.50;99.90
3086;DHT22;52812;48.960;9.108;2023-02-23T09:30:12;10.50;99.90
3086;DHT22;52812;48.960;9.108;2023-02-23T09:32:43;10.70;99.90
3086;DHT22;52812;48.960;9.108;2023-02-23T09:35:10;10.80;99.90
3086;DHT22;52812;48.960;9.108;2023-02-23T09:37:35;10.90;99.90
3086;DHT22;52812;48.960;9.108;2023-02-23T09:40:01;11.00;99.90
3086;DHT22;52812;48.960;9.108;2023-02-23T09:45:17;11.20;99.90
3086;DHT22;52812;48.960;9.108;2023-02-23T09:48:04;11.20;99.90
3086;DHT22;52812;48.960;9.108;2023-02-23T09:50:33;11.20;99.90
3086;DHT22;52812;48.960;9.108;2023-02-23T09:53:24;11.30;99.90
3086;DHT22;52812;48.960;9.108;2023-02-23T09:55:53;11.50;99.90
3086;DHT22;52812;48.960;9.108;2023-02-23T10:03:34;12.00;99.90
3086;DHT22;52812;48.960;9.108;2023-02-23T10:06:07;12.00;99.90
3086;DHT22;52812;48.960;9.108;2023-02-23T10:17:28;11.90;99.90
3086;DHT22;52812;48.960;9.108;2023-02-23T10:22:43;12.00;99.90
3086;DHT22;52812;48.960;9.108;2023-02-23T10:25:16;12.10;99.90
3086;DHT22;52812;48.960;9.108;2023-02-23T10:27:46;12.30;99.90
3086;DHT22;52812;48.960;9.108;2023-02-23T10:30:24;12.40;99.90
3086;DHT22;52812;48.960;9.108;2023-02-23T10:35:30;12.70;99.90
3086;DHT22;52812;48.960;9.108;2023-02-23T10:37:58;12.30;99.90
3086;DHT22;52812;48.960;9.108;2023-02-23T10:40:26;12.10;99.90
3086;DHT22;52812;48.960;9.108;2023-02-23T10:42:54;12.20;99.90
3086;DHT22;52812;48.960;9.108;2023-02-23T10:45:25;12.20;99.90
3086;DHT22;52812;48.960;9.108;2023-02-23T10:47:56;12.20;99.90
3086;DHT22;52812;48.960;9.108;2023-02-23T10:50:23;12.20;99.90
3086;DHT22;52812;48.960;9.108;2023-02-23T10:52:59;12.10;99.90
3086;DHT22;52812;48.960;9.108;2023-02-23T10:55:30;11.90;99.90
3086;DHT22;52812;48.960;9.108;2023-02-23T10:58:22;11.80;99.90
3086;DHT22;52812;48.960;9.108;2023-02-23T11:00:59;11.80;99.90
3086;DHT22;52812;48.960;9.108;2023-02-23T11:03:57;11.70;99.90
3086;DHT22;52812;48.960;9.108;2023-02-23T11:06:34;11.80;99.90
3086;DHT22;52812;48.960;9.108;2023-02-23T11:09:26;11.90;99.90
3086;DHT22;52812;48.960;9.108;2023-02-23T11:11:59;12.20;99.90
3086;DHT22;52812;48.960;9.108;2023-02-23T11:14:26;12.20;99.90
3086;DHT22;52812;48.960;9.108;2023-02-23T11:16:54;12.40;99.90
3086;DHT22;52812;48.960;9.108;2023-02-23T11:19:32;12.60;99.90
3086;DHT22;52812;48.960;9.108;2023-02-23T11:22:00;12.80;99.90
3086;DHT22;52812;48.960;9.108;2023-02-23T11:24:28;13.00;99.90
3086;DHT22;52812;48.960;9.108;2023-02-23T11:26:59;13.20;99.90
3086;DHT22;52812;48.960;9.108;2023-02-23T11:29:34;13.50;99.90
3086;DHT22;52812;48.960;9.108;2023-02-23T11:32:09;13.60;99.90
3086;DHT22;52812;48.960;9.108;2023-02-23T11:34:38;13.70;99.90
3086;DHT22;52812;48.960;9.108;2023-02-23T11:37:18;13.70;99.90
3086;DHT22;52812;48.960;9.108;2023-02-23T11:39:53;13.80;99.90
3086;DHT22;52812;48.960;9.108;2023-02-23T11:42:24;13.80;99.90
3086;DHT22;52812;48.960;9.108;2023-02-23T11:47:38;13.90;99.90
3086;DHT22;52812;48.960;9.108;2023-02-23T11:50:05;14.00;99.90
3086;DHT22;52812;48.960;9.108;2023-02-23T11:52:31;14.20;99.90
3086;DHT22;52812;48.960;9.108;2023-02-23T11:55:04;14.30;99.90
3086;DHT22;52812;48.960;9.108;2023-02-23T11:57:32;14.30;99.90
3086;DHT22;52812;48.960;9.108;2023-02-23T12:00:04;14.10;99.90
3086;DHT22;52812;48.960;9.108;2023-02-23T12:02:42;14.20;99.90
3086;DHT22;52812;48.960;9.108;2023-02-23T12:05:19;14.30;99.90
3086;DHT22;52812;48.960;9.108;2023-02-23T12:10:25;14.40;99.90
3086;DHT22;52812;48.960;9.108;2023-02-23T12:24:44;13.70;99.90
3086;DHT22;52812;48.960;9.108;2023-02-23T12:27:21;13.70;99.90
3086;DHT22;52812;48.960;9.108;2023-02-23T12:30:16;13.70;99.90
3086;DHT22;52812;48.960;9.108;2023-02-23T12:32:55;13.70;99.90
3086;DHT22;52812;48.960;9.108;2023-02-23T12:35:25;13.80;99.90
3086;DHT22;52812;48.960;9.108;2023-02-23T12:37:57;13.80;99.90
3086;DHT22;52812;48.960;9.108;2023-02-23T12:40:27;13.80;99.90
3086;DHT22;52812;48.960;9.108;2023-02-23T12:42:58;13.80;99.90
3086;DHT22;52812;48.960;9.108;2023-02-23T12:45:51;13.70;99.90
3086;DHT22;52812;48.960;9.108;2023-02-23T12:49:02;13.60;99.90
3086;DHT22;52812;48.960;9.108;2023-02-23T12:51:43;13.30;99.90
3086;DHT22;52812;48.960;9.108;2023-02-23T12:54:11;13.10;99.90
3086;DHT22;52812;48.960;9.108;2023-02-23T13:05:06;12.70;99.90
3086;DHT22;52812;48.960;9.108;2023-02-23T13:13:04;12.70;99.90
3086;DHT22;52812;48.960;9.108;2023-02-23T13:18:51;12.70;99.90
3086;DHT22;52812;48.960;9.108;2023-02-23T13:21:32;12.60;99.90
3086;DHT22;52812;48.960;9.108;2023-02-23T13:24:04;12.50;99.90
3086;DHT22;52812;48.960;9.108;2023-02-23T13:31:57;12.50;99.90
3086;DHT22;52812;48.960;9.108;2023-02-23T13:34:33;12.50;99.90
3086;DHT22;52812;48.960;9.108;2023-02-23T13:37:02;12.60;99.90
3086;DHT22;52812;48.960;9.108;2023-02-23T13:45:39;13.10;99.90
3086;DHT22;52812;48.960;9.108;2023-02-23T13:51:13;13.20;99.90
3086;DHT22;52812;48.960;9.108;2023-02-23T13:53:45;13.30;99.90
3086;DHT22;52812;48.960;9.108;2023-02-23T13:56:21;13.20;99.90
3086;DHT22;52812;48.960;9.108;2023-02-23T13:58:53;13.20;99.90
3086;DHT22;52812;48.960;9.108;2023-02-23T14:01:29;13.10;99.90
3086;DHT22;52812;48.960;9.108;2023-02-23T14:04:01;13.10;99.90
3086;DHT22;52812;48.960;9.108;2023-02-23T14:06:29;13.10;99.90
3086;DHT22;52812;48.960;9.108;2023-02-23T14:09:20;13.20;99.90
3086;DHT22;52812;48.960;9.108;2023-02-23T14:20:01;13.20;99.90
3086;DHT22;52812;48.960;9.108;2023-02-23T14:22:30;13.20;99.90
3086;DHT22;52812;48.960;9.108;2023-02-23T14:28:00;13.10;99.90
3086;DHT22;52812;48.960;9.108;2023-02-23T14:30:28;13.00;99.90
3086;DHT22;52812;48.960;9.108;2023-02-23T14:32:59;13.00;99.90
3086;DHT22;52812;48.960;9.108;2023-02-23T14:38:03;12.80;99.90
3086;DHT22;52812;48.960;9.108;2023-02-23T14:40:41;12.70;99.90
3086;DHT22;52812;48.960;9.108;2023-02-23T14:43:43;12.60;99.90
3086;DHT22;52812;48.960;9.108;2023-02-23T14:46:18;12.70;99.90
3086;DHT22;52812;48.960;9.108;2023-02-23T14:49:04;12.70;99.90
3086;DHT22;52812;48.960;9.108;2023-02-23T14:51:39;12.70;99.90
3086;DHT22;52812;48.960;9.108;2023-02-23T14:54:11;12.60;99.90
3086;DHT22;52812;48.960;9.108;2023-02-23T14:56:46;12.60;99.90
3086;DHT22;52812;48.960;9.108;2023-02-23T14:59:20;12.70;99.90
3086;DHT22;52812;48.960;9.108;2023-02-23T15:01:48;12.70;99.90
3086;DHT22;52812;48.960;9.108;2023-02-23T15:06:45;12.70;99.90
3086;DHT22;52812;48.960;9.108;2023-02-23T15:09:17;12.70;99.90
3086;DHT22;52812;48.960;9.108;2023-02-23T15:11:47;12.60;99.90
3086;DHT22;52812;48.960;9.108;2023-02-23T15:14:15;12.60;99.90
3086;DHT22;52812;48.960;9.108;2023-02-23T15:16:42;12.50;99.90
3086;DHT22;52812;48.960;9.108;2023-02-23T15:19:17;12.50;99.90
3086;DHT22;52812;48.960;9.108;2023-02-23T15:21:49;12.50;99.90
3086;DHT22;52812;48.960;9.108;2023-02-23T15:24:15;12.50;99.90
3086;DHT22;52812;48.960;9.108;2023-02-23T15:26:43;12.40;99.90
3086;DHT22;52812;48.960;9.108;2023-02-23T15:31:36;12.40;99.90
3086;DHT22;52812;48.960;9.108;2023-02-23T15:34:10;12.40;99.90
3086;DHT22;52812;48.960;9.108;2023-02-23T15:36:36;12.40;99.90
3086;DHT22;52812;48.960;9.108;2023-02-23T15:39:05;12.30;99.90
3086;DHT22;52812;48.960;9.108;2023-02-23T15:41:34;12.30;99.90
3086;DHT22;52812;48.960;9.108;2023-02-23T15:44:12;12.30;99.90
3086;DHT22;52812;48.960;9.108;2023-02-23T15:46:41;12.20;99.90
3086;DHT22;52812;48.960;9.108;2023-02-23T15:49:11;12.10;99.90
3086;DHT22;52812;48.960;9.108;2023-02-23T15:51:42;12.00;99.90
3086;DHT22;52812;48.960;9.108;2023-02-23T15:54:21;11.90;99.90
3086;DHT22;52812;48.960;9.108;2023-02-23T15:56:53;11.80;99.90
3086;DHT22;52812;48.960;9.108;2023-02-23T15:59:26;11.70;99.90
3086;DHT22;52812;48.960;9.108;2023-02-23T16:01:53;11.70;99.90
3086;DHT22;52812;48.960;9.108;2023-02-23T16:04:19;11.70;99.90
3086;DHT22;52812;48.960;9.108;2023-02-23T16:06:54;11.70;99.90
3086;DHT22;52812;48.960;9.108;2023-02-23T16:11:58;11.60;99.90
3086;DHT22;52812;48.960;9.108;2023-02-23T16:14:29;11.60;99.90
3086;DHT22;52812;48.960;9.108;2023-02-23T16:16:56;11.50;99.90
3086;DHT22;52812;48.960;9.108;2023-02-23T16:19:23;11.50;99.90
3086;DHT22;52812;48.960;9.108;2023-02-23T16:21:52;11.50;99.90
3086;DHT22;52812;48.960;9.108;2023-02-23T16:24:19;11.40;99.90
3086;DHT22;52812;48.960;9.108;2023-02-23T16:27:05;11.30;99.90
3086;DHT22;52812;48.960;9.108;2023-02-23T16:29:40;11.30;99.90
3086;DHT22;52812;48.960;9.108;2023-02-23T16:32:15;11.20;99.90
3086;DHT22;52812;48.960;9.108;2023-02-23T16:34:48;11.20;99.90
3086;DHT22;52812;48.960;9.108;2023-02-23T16:37:23;11.00;99.90
3086;DHT22;52812;48.960;9.108;2023-02-23T16:39:55;11.10;99.90
3086;DHT22;52812;48.960;9.108;2023-02-23T16:42:30;11.00;99.90
3086;DHT22;52812;48.960;9.108;2023-02-23T16:44:57;11.00;99.90
3086;DHT22;52812;48.960;9.108;2023-02-23T16:49:49;10.90;99.90
3086;DHT22;52812;48.960;9.108;2023-02-23T16:52:21;10.90;99.90
3086;DHT22;52812;48.960;9.108;2023-02-23T16:54:47;10.80;99.90
3086;DHT22;52812;48.960;9.108;2023-02-23T16:57:27;10.80;99.90
3086;DHT22;52812;48.960;9.108;2023-02-23T16:59:54;10.80;99.90
3086;DHT22;52812;48.960;9.108;2023-02-23T17:02:22;10.80;99.90
3086;DHT22;52812;48.960;9.108;2023-02-23T17:04:48;10.70;99.90
3086;DHT22;52812;48.960;9.108;2023-02-23T17:07:16;10.70;99.90
3086;DHT22;52812;48.960;9.108;2023-02-23T17:09:42;10.70;99.90
3086;DHT22;52812;48.960;9.108;2023-02-23T17:12:13;10.70;99.90
3086;DHT22;52812;48.960;9.108;2023-02-23T17:14:43;10.70;99.90
3086;DHT22;52812;48.960;9.108;2023-02-23T17:17:14;10.60;99.90
3086;DHT22;52812;48.960;9.108;2023-02-23T17:19:39;10.60;99.90
3086;DHT22;52812;48.960;9.108;2023-02-23T17:22:05;10.60;99.90
3086;DHT22;52812;48.960;9.108;2023-02-23T17:24:30;10.60;99.90
3086;DHT22;52812;48.960;9.108;2023-02-23T17:26:56;10.50;99.90
3086;DHT22;52812;48.960;9.108;2023-02-23T17:29:22;10.50;99.90
3086;DHT22;52812;48.960;9.108;2023-02-23T17:31:49;10.40;99.90
3086;DHT22;52812;48.960;9.108;2023-02-23T17:34:15;10.40;99.90
3086;DHT22;52812;48.960;9.108;2023-02-23T17:36:40;10.40;99.90
3086;DHT22;52812;48.960;9.108;2023-02-23T17:39:06;10.40;99.90
3086;DHT22;52812;48.960;9.108;2023-02-23T17:41:34;10.30;99.90
3086;DHT22;52812;48.960;9.108;2023-02-23T17:43:59;10.20;99.90
3086;DHT22;52812;48.960;9.108;2023-02-23T17:46:27;10.20;99.90
3086;DHT22;52812;48.960;9.108;2023-02-23T17:48:52;10.10;99.90
3086;DHT22;52812;48.960;9.108;2023-02-23T17:51:18;10.10;99.90
3086;DHT22;52812;48.960;9.108;2023-02-23T17:53:45;10.00;99.90
3086;DHT22;52812;48.960;9.108;2023-02-23T17:56:11;10.10;99.90
3086;DHT22;52812;48.960;9.108;2023-02-23T17:58:38;10.10;99.90
3086;DHT22;52812;48.960;9.108;2023-02-23T18:01:05;10.00;99.90
3086;DHT22;52812;48.960;9.108;2023-02-23T18:03:33;9.90;99.90
3086;DHT22;52812;48.960;9.108;2023-02-23T18:06:10;10.00;99.90
3086;DHT22;52812;48.960;9.108;2023-02-23T18:08:36;9.90;99.90
3086;DHT22;52812;48.960;9.108;2023-02-23T18:11:02;9.90;99.90
3086;DHT22;52812;48.960;9.108;2023-02-23T18:13:29;9.80;99.90
3086;DHT22;52812;48.960;9.108;2023-02-23T18:16:00;9.70;99.90
3086;DHT22;52812;48.960;9.108;2023-02-23T18:18:26;9.70;99.90
3086;DHT22;52812;48.960;9.108;2023-02-23T18:20:55;9.60;99.90
3086;DHT22;52812;48.960;9.108;2023-02-23T18:23:22;9.60;99.90